sensor_id;sensor_type;location;lat;lon;timestamp;P1;durP1;ratioP1;P2;durP2;ratioP2
5710;SDS011;61291;52.524;13.422;2023-03-01T00:01:04;73.80;;;67.70;;
5710;SDS011;61291;52.524;13.422;2023-03-01T00:03:30;72.67;;;66.17;;
5710;SDS011;61291;52.524;13.422;2023-03-01T00:05:56;75.73;;;68.00;;
5710;SDS011;61291;52.524;13.422;2023-03-01T00:08:22;71.67;;;65.37;;
5710;SDS011;61291;52.524;13.422;2023-03-01T00:10:48;74.77;;;68.23;;
5710;SDS011;61291;52.524;13.422;2023-03-01T00:13:13;75.23;;;68.53;;
5710;SDS011;61291;52.524;13.422;2023-03-01T00:15:39;72.87;;;66.67;;
5710;SDS011;61291;52.524;13.422;2023-03-01T00:18:06;72.70;;;66.50;;
5710;SDS011;61291;52.524;13.422;2023-03-01T00:20:33;74.30;;;67.93;;
5710;SDS011;61291;52.524;13.422;2023-03-01T00:22:58;74.13;;;66.90;;
5710;SDS011;61291;52.524;13.422;2023-03-01T00:25:24;75.60;;;68.77;;
5710;SDS011;61291;52.524;13.422;2023-03-01T00:27:49;74.63;;;68.13;;
5710;SDS011;61291;52.524;13.422;2023-03-01T00:30:15;77.10;;;70.00;;
5710;SDS011;61291;52.524;13.422;2023-03-01T00:32:40;78.60;;;71.60;;
5710;SDS011;61291;52.524;13.422;2023-03-01T00:35:06;66.73;;;60.40;;
5710;SDS011;61291;52.524;13.422;2023-03-01T00:37:32;77.33;;;70.43;;
5710;SDS011;61291;52.524;13.422;2023-03-01T00:39:57;75.80;;;68.40;;
5710;SDS011;61291;52.524;13.422;2023-03-01T00:42:23;74.33;;;66.63;;
5710;SDS011;61291;52.524;13.422;2023-03-01T00:44:48;76.23;;;69.80;;
5710;SDS011;61291;52.524;13.422;2023-03-01T00:47:14;70.97;;;64.20;;
5710;SDS011;61291;52.524;13.422;2023-03-01T00:49:39;72.40;;;66.20;;
5710;SDS011;61291;52.524;13.422;2023-03-01T00:52:05;72.30;;;65.30;;
5710;SDS011;61291;52.524;13.422;2023-03-01T00:54:30;73.53;;;66.80;;
5710;SDS011;61291;52.524;13.422;2023-03-01T00:56:56;76.30;;;69.40;;
5710;SDS011;61291;52.524;13.422;2023-03-01T00:59:21;74.07;;;67.10;;
5710;SDS011;61291;52.524;13.422;2023-03-01T01:01:47;71.83;;;65.83;;
5710;SDS011;61291;52.524;13.422;2023-03-01T01:04:13;71.70;;;65.00;;
5710;SDS011;61291;52.524;13.422;2023-03-01T01:06:42;71.93;;;64.80;;
5710;SDS011;61291;52.524;13.422;2023-03-01T01:09:10;73.80;;;67.53;;
5710;SDS011;61291;52.524;13.422;2023-03-01T01:11:44;70.13;;;63.73;;
5710;SDS011;61291;52.524;13.422;2023-03-01T01:14:14;72.93;;;66.70;;
5710;SDS011;61291;52.524;13.422;2023-03-01T01:16:40;73.50;;;66.50;;
5710;SDS011;61291;52.524;13.422;2023-03-01T01:19:06;73.57;;;66.70;;
5710;SDS011;61291;52.524;13.422;2023-03-01T01:21:32;69.43;;;63.23;;
5710;SDS011;61291;52.524;13.422;2023-03-01T01:23:57;73.83;;;66.00;;
5710;SDS011;61291;52.524;13.422;2023-03-01T01:26:24;74.03;;;67.33;;
5710;SDS011;61291;52.524;13.422;2023-03-01T01:28:51;72.97;;;65.77;;
5710;SDS011;61291;52.524;13.422;2023-03-01T01:31:18;66.27;;;60.67;;
5710;SDS011;61291;52.524;13.422;2023-03-01T01:33:44;75.17;;;66.87;;
5710;SDS011;61291;52.524;13.422;2023-03-01T01:36:10;68.67;;;61.67;;
5710;SDS011;61291;52.524;13.422;2023-03-01T01:38:36;72.70;;;65.80;;
5710;SDS011;61291;52.524;13.422;2023-03-01T01:41:03;72.67;;;66.13;;
5710;SDS011;61291;52.524;13.422;2023-03-01T01:43:34;70.43;;;63.70;;
5710;SDS011;61291;52.524;13.422;2023-03-01T01:46:02;71.30;;;64.77;;
5710;SDS011;61291;52.524;13.422;2023-03-01T01:48:43;69.77;;;63.37;;
5710;SDS011;61291;52.524;13.422;2023-03-01T01:51:13;72.93;;;65.73;;
5710;SDS011;61291;52.524;13.422;2023-03-01T01:53:44;68.90;;;62.90;;
5710;SDS011;61291;52.524;13.422;2023-03-01T01:56:14;73.43;;;65.87;;
5710;SDS011;61291;52.524;13.422;2023-03-01T01:58:43;72.77;;;65.97;;
5710;SDS011;61291;52.524;13.422;2023-03-01T02:01:08;72.73;;;66.30;;
5710;SDS011;61291;52.524;13.422;2023-03-01T02:03:34;63.07;;;56.87;;
5710;SDS011;61291;52.524;13.422;2023-03-01T02:06:10;75.57;;;68.73;;
5710;SDS011;61291;52.524;13.422;2023-03-01T02:08:57;75.93;;;68.77;;
5710;SDS011;61291;52.524;13.422;2023-03-01T02:11:28;77.93;;;70.53;;
5710;SDS011;61291;52.524;13.422;2023-03-01T02:13:55;76.70;;;69.87;;
5710;SDS011;61291;52.524;13.422;2023-03-01T02:16:21;76.90;;;69.40;;
5710;SDS011;61291;52.524;13.422;2023-03-01T02:18:47;75.87;;;68.53;;
5710;SDS011;61291;52.524;13.422;2023-03-01T02:24:10;75.17;;;67.67;;
5710;SDS011;61291;52.524;13.422;2023-03-01T02:26:53;75.40;;;68.20;;
5710;SDS011;61291;52.524;13.422;2023-03-01T02:29:21;72.17;;;65.83;;
5710;SDS011;61291;52.524;13.422;2023-03-01T02:31:48;77.00;;;68.90;;
5710;SDS011;61291;52.524;13.422;2023-03-01T02:34:17;77.13;;;69.37;;
5710;SDS011;61291;52.524;13.422;2023-03-01T02:36:45;72.63;;;66.03;;
5710;SDS011;61291;52.524;13.422;2023-03-01T02:39:39;75.57;;;68.27;;
5710;SDS011;61291;52.524;13.422;2023-03-01T02:42:10;76.77;;;69.07;;
5710;SDS011;61291;52.524;13.422;2023-03-01T02:44:37;79.33;;;71.77;;
5710;SDS011;61291;52.524;13.422;2023-03-01T02:47:03;77.93;;;70.80;;
5710;SDS011;61291;52.524;13.422;2023-03-01T02:49:31;76.43;;;69.03;;
5710;SDS011;61291;52.524;13.422;2023-03-01T02:57:26;81.60;;;74.00;;
5710;SDS011;61291;52.524;13.422;2023-03-01T02:59:54;78.77;;;71.47;;
5710;SDS011;61291;52.524;13.422;2023-03-01T03:02:24;80.90;;;73.17;;
5710;SDS011;61291;52.524;13.422;2023-03-01T03:05:10;77.20;;;70.53;;
5710;SDS011;61291;52.524;13.422;2023-03-01T03:07:39;76.43;;;69.27;;
5710;SDS011;61291;52.524;13.422;2023-03-01T03:10:07;79.33;;;72.10;;
5710;SDS011;61291;52.524;13.422;2023-03-01T03:12:36;78.47;;;71.27;;
5710;SDS011;61291;52.524;13.422;2023-03-01T03:15:02;79.10;;;71.10;;
5710;SDS011;61291;52.524;13.422;2023-03-01T03:17:33;78.17;;;70.60;;
5710;SDS011;61291;52.524;13.422;2023-03-01T03:20:03;81.70;;;73.50;;
5710;SDS011;61291;52.524;13.422;2023-03-01T03:22:30;77.83;;;70.43;;
5710;SDS011;61291;52.524;13.422;2023-03-01T03:24:58;77.30;;;70.83;;
5710;SDS011;61291;52.524;13.422;2023-03-01T03:27:24;78.73;;;71.17;;
5710;SDS011;61291;52.524;13.422;2023-03-01T03:29:49;78.50;;;71.50;;
5710;SDS011;61291;52.524;13.422;2023-03-01T03:32:15;78.87;;;71.20;;
5710;SDS011;61291;52.524;13.422;2023-03-01T03:34:40;75.37;;;68.57;;
5710;SDS011;61291;52.524;13.422;2023-03-01T03:37:06;73.57;;;66.43;;
5710;SDS011;61291;52.524;13.422;2023-03-01T03:39:51;74.77;;;68.07;;
5710;SDS011;61291;52.524;13.422;2023-03-01T03:42:19;74.50;;;66.90;;
5710;SDS011;61291;52.524;13.422;2023-03-01T03:44:46;75.20;;;68.60;;
5710;SDS011;61291;52.524;13.422;2023-03-01T03:47:12;74.17;;;67.13;;
5710;SDS011;61291;52.524;13.422;2023-03-01T03:49:39;76.37;;;69.33;;
5710;SDS011;61291;52.524;13.422;2023-03-01T03:52:04;75.47;;;68.93;;
5710;SDS011;61291;52.524;13.422;2023-03-01T03:54:38;72.97;;;66.23;;
5710;SDS011;61291;52.524;13.422;2023-03-01T03:57:06;78.17;;;70.63;;
5710;SDS011;61291;52.524;13.422;2023-03-01T03:59:32;78.00;;;71.20;;
5710;SDS011;61291;52.524;13.422;2023-03-01T04:01:58;76.37;;;69.57;;
5710;SDS011;61291;52.524;13.422;2023-03-01T04:04:23;75.83;;;69.13;;
5710;SDS011;61291;52.524;13.422;2023-03-01T04:06:49;76.63;;;70.17;;
5710;SDS011;61291;52.524;13.422;2023-03-01T04:09:14;77.80;;;71.00;;
5710;SDS011;61291;52.524;13.422;2023-03-01T04:11:40;76.37;;;69.43;;
5710;SDS011;61291;52.524;13.422;2023-03-01T04:14:05;73.53;;;67.20;;
5710;SDS011;61291;52.524;13.422;2023-03-01T04:16:31;76.00;;;69.53;;
5710;SDS011;61291;52.524;13.422;2023-03-01T04:18:56;70.93;;;64.63;;
5710;SDS011;61291;52.524;13.422;2023-03-01T04:21:24;76.00;;;69.20;;
5710;SDS011;61291;52.524;13.422;2023-03-01T04:23:49;72.97;;;66.87;;
5710;SDS011;61291;52.524;13.422;2023-03-01T04:26:17;71.57;;;65.03;;
5710;SDS011;61291;52.524;13.422;2023-03-01T04:28:44;77.27;;;69.90;;
5710;SDS011;61291;52.524;13.422;2023-03-01T04:31:14;78.67;;;71.03;;
5710;SDS011;61291;52.524;13.422;2023-03-01T04:33:48;76.67;;;69.57;;
5710;SDS011;61291;52.524;13.422;2023-03-01T04:36:20;75.47;;;69.20;;
5710;SDS011;61291;52.524;13.422;2023-03-01T04:38:47;73.63;;;66.97;;
5710;SDS011;61291;52.524;13.422;2023-03-01T04:41:13;78.30;;;71.17;;
5710;SDS011;61291;52.524;13.422;2023-03-01T04:43:41;75.40;;;68.60;;
5710;SDS011;61291;52.524;13.422;2023-03-01T04:46:07;77.37;;;70.57;;
5710;SDS011;61291;52.524;13.422;2023-03-01T04:48:36;75.10;;;68.50;;
5710;SDS011;61291;52.524;13.422;2023-03-01T04:51:03;78.23;;;71.00;;
5710;SDS011;61291;52.524;13.422;2023-03-01T04:53:30;76.17;;;69.30;;
5710;SDS011;61291;52.524;13.422;2023-03-01T04:55:57;73.83;;;67.40;;
5710;SDS011;61291;52.524;13.422;2023-03-01T04:58:23;77.53;;;69.70;;
5710;SDS011;61291;52.524;13.422;2023-03-01T05:00:50;75.77;;;68.27;;
5710;SDS011;61291;52.524;13.422;2023-03-01T05:03:16;72.40;;;66.00;;
5710;SDS011;61291;52.524;13.422;2023-03-01T05:05:45;68.13;;;61.25;;
5710;SDS011;61291;52.524;13.422;2023-03-01T05:08:12;84.10;;;76.00;;
5710;SDS011;61291;52.524;13.422;2023-03-01T05:10:42;72.07;;;64.90;;
5710;SDS011;61291;52.524;13.422;2023-03-01T05:13:17;76.77;;;69.77;;
5710;SDS011;61291;52.524;13.422;2023-03-01T05:15:48;76.07;;;69.50;;
5710;SDS011;61291;52.524;13.422;2023-03-01T05:18:22;72.20;;;65.40;;
5710;SDS011;61291;52.524;13.422;2023-03-01T05:20:54;78.53;;;70.77;;
5710;SDS011;61291;52.524;13.422;2023-03-01T05:23:23;76.03;;;68.67;;
5710;SDS011;61291;52.524;13.422;2023-03-01T05:25:49;72.53;;;66.13;;
5710;SDS011;61291;52.524;13.422;2023-03-01T05:28:17;73.30;;;66.93;;
5710;SDS011;61291;52.524;13.422;2023-03-01T05:30:44;78.07;;;71.17;;
5710;SDS011;61291;52.524;13.422;2023-03-01T05:33:10;77.87;;;70.30;;
5710;SDS011;61291;52.524;13.422;2023-03-01T05:35:40;81.47;;;73.67;;
5710;SDS011;61291;52.524;13.422;2023-03-01T05:38:07;81.07;;;73.30;;
5710;SDS011;61291;52.524;13.422;2023-03-01T05:40:33;80.67;;;72.67;;
5710;SDS011;61291;52.524;13.422;2023-03-01T05:42:59;75.23;;;68.70;;
5710;SDS011;61291;52.524;13.422;2023-03-01T05:45:25;83.17;;;75.57;;
5710;SDS011;61291;52.524;13.422;2023-03-01T05:47:52;85.97;;;78.00;;
5710;SDS011;61291;52.524;13.422;2023-03-01T05:50:20;82.20;;;74.80;;
5710;SDS011;61291;52.524;13.422;2023-03-01T05:52:49;84.40;;;75.90;;
5710;SDS011;61291;52.524;13.422;2023-03-01T05:55:16;87.33;;;78.47;;
5710;SDS011;61291;52.524;13.422;2023-03-01T05:57:43;79.23;;;71.30;;
5710;SDS011;61291;52.524;13.422;2023-03-01T06:00:10;80.40;;;72.30;;
5710;SDS011;61291;52.524;13.422;2023-03-01T06:02:36;87.13;;;79.03;;
5710;SDS011;61291;52.524;13.422;2023-03-01T06:05:03;82.87;;;75.33;;
5710;SDS011;61291;52.524;13.422;2023-03-01T06:07:29;85.33;;;76.83;;
5710;SDS011;61291;52.524;13.422;2023-03-01T06:09:55;80.63;;;72.80;;
5710;SDS011;61291;52.524;13.422;2023-03-01T06:12:21;87.83;;;79.37;;
5710;SDS011;61291;52.524;13.422;2023-03-01T06:14:46;84.10;;;75.47;;
5710;SDS011;61291;52.524;13.422;2023-03-01T06:17:12;80.93;;;72.73;;
5710;SDS011;61291;52.524;13.422;2023-03-01T06:19:38;88.13;;;78.37;;
5710;SDS011;61291;52.524;13.422;2023-03-01T06:22:04;97.20;;;87.30;;
5710;SDS011;61291;52.524;13.422;2023-03-01T06:24:29;93.10;;;84.50;;
5710;SDS011;61291;52.524;13.422;2023-03-01T06:26:55;83.87;;;76.33;;
5710;SDS011;61291;52.524;13.422;2023-03-01T06:29:20;90.20;;;82.43;;
5710;SDS011;61291;52.524;13.422;2023-03-01T06:31:47;88.40;;;79.93;;
5710;SDS011;61291;52.524;13.422;2023-03-01T06:34:13;93.83;;;84.83;;
5710;SDS011;61291;52.524;13.422;2023-03-01T06:36:39;91.87;;;83.67;;
5710;SDS011;61291;52.524;13.422;2023-03-01T06:39:05;86.30;;;77.80;;
5710;SDS011;61291;52.524;13.422;2023-03-01T06:41:31;82.87;;;75.23;;
5710;SDS011;61291;52.524;13.422;2023-03-01T06:43:57;80.60;;;72.30;;
5710;SDS011;61291;52.524;13.422;2023-03-01T06:46:23;83.47;;;74.67;;
5710;SDS011;61291;52.524;13.422;2023-03-01T06:48:49;80.97;;;72.60;;
5710;SDS011;61291;52.524;13.422;2023-03-01T06:51:14;87.03;;;78.37;;
5710;SDS011;61291;52.524;13.422;2023-03-01T06:53:40;85.30;;;76.50;;
5710;SDS011;61291;52.524;13.422;2023-03-01T06:56:05;83.23;;;73.30;;
5710;SDS011;61291;52.524;13.422;2023-03-01T06:58:31;80.00;;;72.20;;
5710;SDS011;61291;52.524;13.422;2023-03-01T07:00:56;72.97;;;64.70;;
5710;SDS011;61291;52.524;13.422;2023-03-01T07:03:22;71.53;;;64.90;;
5710;SDS011;61291;52.524;13.422;2023-03-01T07:05:51;76.97;;;70.07;;
5710;SDS011;61291;52.524;13.422;2023-03-01T07:08:17;80.27;;;71.97;;
5710;SDS011;61291;52.524;13.422;2023-03-01T07:10:43;75.73;;;68.73;;
5710;SDS011;61291;52.524;13.422;2023-03-01T07:13:09;79.67;;;72.27;;
5710;SDS011;61291;52.524;13.422;2023-03-01T07:15:35;77.57;;;69.87;;
5710;SDS011;61291;52.524;13.422;2023-03-01T07:18:00;80.47;;;72.73;;
5710;SDS011;61291;52.524;13.422;2023-03-01T07:20:26;76.10;;;68.57;;
5710;SDS011;61291;52.524;13.422;2023-03-01T07:22:52;80.90;;;73.30;;
5710;SDS011;61291;52.524;13.422;2023-03-01T07:25:18;83.27;;;75.07;;
5710;SDS011;61291;52.524;13.422;2023-03-01T07:27:43;83.67;;;74.77;;
5710;SDS011;61291;52.524;13.422;2023-03-01T07:30:13;79.13;;;71.03;;
5710;SDS011;61291;52.524;13.422;2023-03-01T07:32:38;82.93;;;75.03;;
5710;SDS011;61291;52.524;13.422;2023-03-01T07:35:04;85.33;;;77.40;;
5710;SDS011;61291;52.524;13.422;2023-03-01T07:37:30;90.37;;;81.43;;
5710;SDS011;61291;52.524;13.422;2023-03-01T07:39:55;90.63;;;81.83;;
5710;SDS011;61291;52.524;13.422;2023-03-01T07:42:21;90.73;;;81.60;;
5710;SDS011;61291;52.524;13.422;2023-03-01T07:44:46;84.87;;;76.97;;
5710;SDS011;61291;52.524;13.422;2023-03-01T07:47:12;83.93;;;75.70;;
5710;SDS011;61291;52.524;13.422;2023-03-01T07:49:37;86.87;;;78.60;;
5710;SDS011;61291;52.524;13.422;2023-03-01T07:52:03;80.90;;;73.20;;
5710;SDS011;61291;52.524;13.422;2023-03-01T07:54:28;82.47;;;74.87;;
5710;SDS011;61291;52.524;13.422;2023-03-01T07:56:54;76.83;;;69.90;;
5710;SDS011;61291;52.524;13.422;2023-03-01T07:59:20;77.97;;;69.97;;
5710;SDS011;61291;52.524;13.422;2023-03-01T08:01:48;79.53;;;72.83;;
5710;SDS011;61291;52.524;13.422;2023-03-01T08:04:14;77.07;;;70.27;;
5710;SDS011;61291;52.524;13.422;2023-03-01T08:06:39;76.97;;;70.07;;
5710;SDS011;61291;52.524;13.422;2023-03-01T08:09:05;72.57;;;66.30;;
5710;SDS011;61291;52.524;13.422;2023-03-01T08:11:30;77.57;;;70.40;;
5710;SDS011;61291;52.524;13.422;2023-03-01T08:13:56;75.47;;;69.13;;
5710;SDS011;61291;52.524;13.422;2023-03-01T08:16:22;73.80;;;67.37;;
5710;SDS011;61291;52.524;13.422;2023-03-01T08:18:48;72.23;;;66.43;;
5710;SDS011;61291;52.524;13.422;2023-03-01T08:21:14;69.77;;;63.80;;
5710;SDS011;61291;52.524;13.422;2023-03-01T08:23:41;71.67;;;66.07;;
5710;SDS011;61291;52.524;13.422;2023-03-01T08:26:11;69.17;;;63.87;;
5710;SDS011;61291;52.524;13.422;2023-03-01T08:28:42;67.17;;;61.27;;
5710;SDS011;61291;52.524;13.422;2023-03-01T08:31:14;70.10;;;63.57;;
5710;SDS011;61291;52.524;13.422;2023-03-01T08:33:41;62.17;;;57.47;;
5710;SDS011;61291;52.524;13.422;2023-03-01T08:36:07;62.77;;;57.97;;
5710;SDS011;61291;52.524;13.422;2023-03-01T08:38:33;63.17;;;58.17;;
5710;SDS011;61291;52.524;13.422;2023-03-01T08:41:00;63.97;;;59.27;;
5710;SDS011;61291;52.524;13.422;2023-03-01T08:43:26;65.33;;;59.30;;
5710;SDS011;61291;52.524;13.422;2023-03-01T08:45:52;63.90;;;58.93;;
5710;SDS011;61291;52.524;13.422;2023-03-01T08:48:18;54.70;;;50.10;;
5710;SDS011;61291;52.524;13.422;2023-03-01T08:50:43;66.40;;;60.83;;
5710;SDS011;61291;52.524;13.422;2023-03-01T08:53:09;68.40;;;62.63;;
5710;SDS011;61291;52.524;13.422;2023-03-01T08:55:34;71.10;;;64.87;;
5710;SDS011;61291;52.524;13.422;2023-03-01T08:58:00;66.60;;;61.50;;
5710;SDS011;61291;52.524;13.422;2023-03-01T09:00:25;67.07;;;61.90;;
5710;SDS011;61291;52.524;13.422;2023-03-01T09:02:51;67.03;;;61.77;;
5710;SDS011;61291;52.524;13.422;2023-03-01T09:05:16;63.83;;;58.40;;
5710;SDS011;61291;52.524;13.422;2023-03-01T09:07:42;69.47;;;63.37;;
5710;SDS011;61291;52.524;13.422;2023-03-01T09:10:08;65.43;;;60.40;;
5710;SDS011;61291;52.524;13.422;2023-03-01T09:12:34;65.00;;;60.00;;
5710;SDS011;61291;52.524;13.422;2023-03-01T09:14:59;64.80;;;59.50;;
5710;SDS011;61291;52.524;13.422;2023-03-01T09:17:25;67.90;;;62.20;;
5710;SDS011;61291;52.524;13.422;2023-03-01T09:19:50;72.47;;;66.30;;
5710;SDS011;61291;52.524;13.422;2023-03-01T09:22:16;67.60;;;61.43;;
5710;SDS011;61291;52.524;13.422;2023-03-01T09:24:41;65.93;;;60.83;;
5710;SDS011;61291;52.524;13.422;2023-03-01T09:27:06;64.23;;;59.37;;
5710;SDS011;61291;52.524;13.422;2023-03-01T09:29:33;69.90;;;63.90;;
5710;SDS011;61291;52.524;13.422;2023-03-01T09:32:02;70.70;;;64.77;;
5710;SDS011;61291;52.524;13.422;2023-03-01T09:34:27;56.60;;;51.70;;
5710;SDS011;61291;52.524;13.422;2023-03-01T09:36:53;68.73;;;63.50;;
5710;SDS011;61291;52.524;13.422;2023-03-01T09:39:18;73.63;;;67.63;;
5710;SDS011;61291;52.524;13.422;2023-03-01T09:41:46;67.73;;;62.63;;
5710;SDS011;61291;52.524;13.422;2023-03-01T09:44:25;57.25;;;51.85;;
5710;SDS011;61291;52.524;13.422;2023-03-01T09:47:03;70.57;;;65.07;;
5710;SDS011;61291;52.524;13.422;2023-03-01T09:49:30;72.03;;;65.80;;
5710;SDS011;61291;52.524;13.422;2023-03-01T09:52:04;74.63;;;68.93;;
5710;SDS011;61291;52.524;13.422;2023-03-01T09:54:49;72.73;;;66.47;;
5710;SDS011;61291;52.524;13.422;2023-03-01T09:57:22;74.03;;;68.37;;
5710;SDS011;61291;52.524;13.422;2023-03-01T10:05:56;71.53;;;65.70;;
5710;SDS011;61291;52.524;13.422;2023-03-01T10:08:30;68.63;;;63.30;;
5710;SDS011;61291;52.524;13.422;2023-03-01T10:11:13;71.27;;;65.97;;
5710;SDS011;61291;52.524;13.422;2023-03-01T10:14:33;72.20;;;66.47;;
5710;SDS011;61291;52.524;13.422;2023-03-01T10:16:40;73.63;;;67.53;;
5710;SDS011;61291;52.524;13.422;2023-03-01T10:19:22;74.10;;;68.40;;
5710;SDS011;61291;52.524;13.422;2023-03-01T10:21:52;69.00;;;63.30;;
5710;SDS011;61291;52.524;13.422;2023-03-01T10:24:19;69.57;;;64.07;;
5710;SDS011;61291;52.524;13.422;2023-03-01T10:27:00;70.43;;;65.07;;
5710;SDS011;61291;52.524;13.422;2023-03-01T10:29:31;71.33;;;66.10;;
5710;SDS011;61291;52.524;13.422;2023-03-01T10:32:03;70.20;;;64.80;;
5710;SDS011;61291;52.524;13.422;2023-03-01T10:34:31;70.70;;;65.10;;
5710;SDS011;61291;52.524;13.422;2023-03-01T10:39:53;68.70;;;63.50;;
5710;SDS011;61291;52.524;13.422;2023-03-01T10:42:35;67.97;;;62.53;;
5710;SDS011;61291;52.524;13.422;2023-03-01T10:45:30;70.27;;;65.07;;
5710;SDS011;61291;52.524;13.422;2023-03-01T10:50:38;71.47;;;66.07;;
5710;SDS011;61291;52.524;13.422;2023-03-01T10:53:31;69.60;;;64.50;;
5710;SDS011;61291;52.524;13.422;2023-03-01T10:56:02;74.63;;;69.00;;
5710;SDS011;61291;52.524;13.422;2023-03-01T10:58:30;69.63;;;64.63;;
5710;SDS011;61291;52.524;13.422;2023-03-01T11:01:01;71.10;;;64.70;;
5710;SDS011;61291;52.524;13.422;2023-03-01T11:03:33;56.03;;;51.72;;
5710;SDS011;61291;52.524;13.422;2023-03-01T11:06:05;65.53;;;60.70;;
5710;SDS011;61291;52.524;13.422;2023-03-01T11:08:38;64.73;;;59.30;;
5710;SDS011;61291;52.524;13.422;2023-03-01T11:11:13;67.70;;;62.20;;
5710;SDS011;61291;52.524;13.422;2023-03-01T11:13:54;52.53;;;48.53;;
5710;SDS011;61291;52.524;13.422;2023-03-01T11:16:39;68.50;;;62.20;;
5710;SDS011;61291;52.524;13.422;2023-03-01T11:19:13;66.77;;;61.57;;
5710;SDS011;61291;52.524;13.422;2023-03-01T11:21:54;64.07;;;59.37;;
5710;SDS011;61291;52.524;13.422;2023-03-01T11:24:38;61.87;;;57.23;;
5710;SDS011;61291;52.524;13.422;2023-03-01T11:27:26;64.93;;;59.87;;
5710;SDS011;61291;52.524;13.422;2023-03-01T11:30:07;65.80;;;60.50;;
5710;SDS011;61291;52.524;13.422;2023-03-01T11:33:01;65.00;;;59.70;;
5710;SDS011;61291;52.524;13.422;2023-03-01T11:35:49;64.57;;;58.83;;
5710;SDS011;61291;52.524;13.422;2023-03-01T11:38:22;66.23;;;61.03;;
5710;SDS011;61291;52.524;13.422;2023-03-01T11:40:52;67.20;;;62.23;;
5710;SDS011;61291;52.524;13.422;2023-03-01T11:43:29;65.73;;;60.53;;
5710;SDS011;61291;52.524;13.422;2023-03-01T11:46:23;63.10;;;58.33;;
5710;SDS011;61291;52.524;13.422;2023-03-01T11:51:24;64.40;;;59.73;;
5710;SDS011;61291;52.524;13.422;2023-03-01T11:54:17;65.63;;;60.90;;
5710;SDS011;61291;52.524;13.422;2023-03-01T11:56:57;61.10;;;56.40;;
5710;SDS011;61291;52.524;13.422;2023-03-01T11:59:50;63.17;;;58.03;;
5710;SDS011;61291;52.524;13.422;2023-03-01T12:02:43;61.77;;;57.10;;
5710;SDS011;61291;52.524;13.422;2023-03-01T12:08:48;63.20;;;58.37;;
5710;SDS011;61291;52.524;13.422;2023-03-01T12:11:32;64.77;;;59.77;;
5710;SDS011;61291;52.524;13.422;2023-03-01T12:14:21;65.57;;;60.63;;
5710;SDS011;61291;52.524;13.422;2023-03-01T12:17:07;64.97;;;59.97;;
5710;SDS011;61291;52.524;13.422;2023-03-01T12:26:03;63.77;;;58.77;;
5710;SDS011;61291;52.524;13.422;2023-03-01T12:28:56;64.23;;;59.73;;
5710;SDS011;61291;52.524;13.422;2023-03-01T12:37:21;63.20;;;58.30;;
5710;SDS011;61291;52.524;13.422;2023-03-01T12:40:21;63.90;;;59.13;;
5710;SDS011;61291;52.524;13.422;2023-03-01T12:43:20;64.90;;;59.80;;
5710;SDS011;61291;52.524;13.422;2023-03-01T12:46:07;67.67;;;62.63;;
5710;SDS011;61291;52.524;13.422;2023-03-01T12:48:51;66.33;;;61.53;;
5710;SDS011;61291;52.524;13.422;2023-03-01T12:51:24;67.00;;;62.03;;
5710;SDS011;61291;52.524;13.422;2023-03-01T12:53:55;68.37;;;62.87;;
5710;SDS011;61291;52.524;13.422;2023-03-01T12:56:26;64.50;;;59.80;;
5710;SDS011;61291;52.524;13.422;2023-03-01T12:58:59;64.67;;;59.97;;
5710;SDS011;61291;52.524;13.422;2023-03-01T13:01:51;70.67;;;65.73;;
5710;SDS011;61291;52.524;13.422;2023-03-01T13:07:28;67.23;;;62.67;;
5710;SDS011;61291;52.524;13.422;2023-03-01T13:12:53;67.67;;;62.20;;
5710;SDS011;61291;52.524;13.422;2023-03-01T13:15:29;68.67;;;63.93;;
5710;SDS011;61291;52.524;13.422;2023-03-01T13:20:25;67.40;;;62.80;;
5710;SDS011;61291;52.524;13.422;2023-03-01T13:23:09;63.07;;;58.47;;
5710;SDS011;61291;52.524;13.422;2023-03-01T13:31:03;66.07;;;61.40;;
5710;SDS011;61291;52.524;13.422;2023-03-01T13:35:58;68.37;;;63.40;;
5710;SDS011;61291;52.524;13.422;2023-03-01T13:41:10;65.00;;;60.33;;
5710;SDS011;61291;52.524;13.422;2023-03-01T13:43:38;67.27;;;62.27;;
5710;SDS011;61291;52.524;13.422;2023-03-01T13:46:11;68.97;;;64.00;;
5710;SDS011;61291;52.524;13.422;2023-03-01T13:48:42;65.83;;;61.33;;
5710;SDS011;61291;52.524;13.422;2023-03-01T13:51:10;68.73;;;63.90;;
5710;SDS011;61291;52.524;13.422;2023-03-01T13:53:42;68.53;;;63.73;;
5710;SDS011;61291;52.524;13.422;2023-03-01T13:56:17;66.47;;;61.77;;
5710;SDS011;61291;52.524;13.422;2023-03-01T13:58:59;68.37;;;63.70;;
5710;SDS011;61291;52.524;13.422;2023-03-01T14:01:32;67.53;;;62.80;;
5710;SDS011;61291;52.524;13.422;2023-03-01T14:04:00;70.37;;;65.53;;
5710;SDS011;61291;52.524;13.422;2023-03-01T14:06:31;53.45;;;49.65;;
5710;SDS011;61291;52.524;13.422;2023-03-01T14:14:54;65.73;;;60.93;;
5710;SDS011;61291;52.524;13.422;2023-03-01T14:19:59;65.57;;;61.07;;
5710;SDS011;61291;52.524;13.422;2023-03-01T14:22:30;67.50;;;62.70;;
5710;SDS011;61291;52.524;13.422;2023-03-01T14:24:59;65.30;;;60.43;;
5710;SDS011;61291;52.524;13.422;2023-03-01T14:27:55;65.97;;;61.27;;
5710;SDS011;61291;52.524;13.422;2023-03-01T14:32:54;66.20;;;61.47;;
5710;SDS011;61291;52.524;13.422;2023-03-01T14:35:28;61.67;;;57.47;;
5710;SDS011;61291;52.524;13.422;2023-03-01T14:37:56;65.00;;;60.30;;
5710;SDS011;61291;52.524;13.422;2023-03-01T14:40:26;63.03;;;58.43;;
5710;SDS011;61291;52.524;13.422;2023-03-01T14:42:55;62.47;;;57.97;;
5710;SDS011;61291;52.524;13.422;2023-03-01T14:45:24;63.63;;;59.13;;
5710;SDS011;61291;52.524;13.422;2023-03-01T14:47:51;62.83;;;58.33;;
5710;SDS011;61291;52.524;13.422;2023-03-01T14:50:25;65.47;;;60.80;;
5710;SDS011;61291;52.524;13.422;2023-03-01T14:52:54;62.47;;;57.93;;
5710;SDS011;61291;52.524;13.422;2023-03-01T14:55:25;61.07;;;56.37;;
5710;SDS011;61291;52.524;13.422;2023-03-01T14:57:54;61.63;;;57.40;;
5710;SDS011;61291;52.524;13.422;2023-03-01T15:00:22;64.17;;;59.80;;
5710;SDS011;61291;52.524;13.422;2023-03-01T15:02:53;61.93;;;57.50;;
5710;SDS011;61291;52.524;13.422;2023-03-01T15:05:24;61.80;;;57.70;;
5710;SDS011;61291;52.524;13.422;2023-03-01T15:07:54;64.53;;;59.83;;
5710;SDS011;61291;52.524;13.422;2023-03-01T15:10:22;64.90;;;59.67;;
5710;SDS011;61291;52.524;13.422;2023-03-01T15:12:50;60.03;;;55.43;;
5710;SDS011;61291;52.524;13.422;2023-03-01T15:15:31;63.13;;;58.43;;
5710;SDS011;61291;52.524;13.422;2023-03-01T15:18:03;63.60;;;59.20;;
5710;SDS011;61291;52.524;13.422;2023-03-01T15:20:31;62.77;;;58.23;;
5710;SDS011;61291;52.524;13.422;2023-03-01T15:23:00;61.20;;;56.60;;
5710;SDS011;61291;52.524;13.422;2023-03-01T15:25:27;59.03;;;54.50;;
5710;SDS011;61291;52.524;13.422;2023-03-01T15:27:55;60.40;;;56.30;;
5710;SDS011;61291;52.524;13.422;2023-03-01T15:30:22;62.07;;;57.83;;
5710;SDS011;61291;52.524;13.422;2023-03-01T15:35:55;59.03;;;55.10;;
5710;SDS011;61291;52.524;13.422;2023-03-01T15:43:55;62.10;;;57.57;;
5710;SDS011;61291;52.524;13.422;2023-03-01T15:46:24;61.63;;;56.85;;
5710;SDS011;61291;52.524;13.422;2023-03-01T15:48:57;60.67;;;56.27;;
5710;SDS011;61291;52.524;13.422;2023-03-01T15:51:29;61.73;;;56.73;;
5710;SDS011;61291;52.524;13.422;2023-03-01T15:53:57;61.83;;;57.33;;